sensor_id;sensor_type;location;lat;lon;timestamp;pressure;altitude;pressure_sealevel;temperature;humidity
73671;BME280;61968;48.178;11.566;2023-05-29T00:00:41;95719.25;;;17.14;28.43
73671;BME280;61968;48.178;11.566;2023-05-29T00:03:09;95714.47;;;17.11;28.62
73671;BME280;61968;48.178;11.566;2023-05-29T00:05:36;95727.84;;;17.06;28.48
73671;BME280;61968;48.178;11.566;2023-05-29T00:08:02;95717.97;;;16.96;28.58
73671;BME280;61968;48.178;11.566;2023-05-29T00:10:29;95728.66;;;16.96;28.65
73671;BME280;61968;48.178;11.566;2023-05-29T00:12:58;95717.97;;;16.96;28.92
73671;BME280;61968;48.178;11.566;2023-05-29T00:15:26;95717.47;;;16.94;28.92
73671;BME280;61968;48.178;11.566;2023-05-29T00:17:52;95719.59;;;16.92;28.53
73671;BME280;61968;48.178;11.566;2023-05-29T00:20:19;95714.25;;;16.92;28.56
73671;BME280;61968;48.178;11.566;2023-05-29T00:22:45;95723.88;;;16.88;28.54
73671;BME280;61968;48.178;11.566;2023-05-29T00:25:12;95718.00;;;16.86;28.73
73671;BME280;61968;48.178;11.566;2023-05-29T00:27:38;95722.81;;;16.89;28.45
73671;BME280;61968;48.178;11.566;2023-05-29T00:30:07;95717.22;;;16.85;28.82
73671;BME280;61968;48.178;11.566;2023-05-29T00:32:34;95716.41;;;16.80;28.65
73671;BME280;61968;48.178;11.566;2023-05-29T00:35:01;95704.69;;;16.75;28.89
73671;BME280;61968;48.178;11.566;2023-05-29T00:37:28;95710.03;;;16.75;28.93
73671;BME280;61968;48.178;11.566;2023-05-29T00:39:54;95707.38;;;16.75;29.24
73671;BME280;61968;48.178;11.566;2023-05-29T00:42:21;95712.41;;;16.77;29.14
73671;BME280;61968;48.178;11.566;2023-05-29T00:44:48;95713.75;;;16.74;29.11
73671;BME280;61968;48.178;11.566;2023-05-29T00:47:16;95710.03;;;16.70;29.41
73671;BME280;61968;48.178;11.566;2023-05-29T00:49:42;95714.56;;;16.70;29.38
73671;BME280;61968;48.178;11.566;2023-05-29T00:52:09;95706.53;;;16.65;29.36
73671;BME280;61968;48.178;11.566;2023-05-29T00:54:36;95710.03;;;16.60;29.41
73671;BME280;61968;48.178;11.566;2023-05-29T00:57:04;95708.94;;;16.56;29.86
73671;BME280;61968;48.178;11.566;2023-05-29T00:59:33;95705.22;;;16.57;29.95
73671;BME280;61968;48.178;11.566;2023-05-29T01:02:01;95713.75;;;16.54;29.84
73671;BME280;61968;48.178;11.566;2023-05-29T01:04:29;95715.34;;;16.50;29.86
73671;BME280;61968;48.178;11.566;2023-05-29T01:06:58;95715.66;;;16.48;29.89
73671;BME280;61968;48.178;11.566;2023-05-29T01:09:27;95721.50;;;16.50;29.76
73671;BME280;61968;48.178;11.566;2023-05-29T01:12:16;95720.97;;;16.43;30.13
73671;BME280;61968;48.178;11.566;2023-05-29T01:14:56;95717.75;;;16.41;29.96
73671;BME280;61968;48.178;11.566;2023-05-29T01:17:36;95711.63;;;16.41;29.96
73671;BME280;61968;48.178;11.566;2023-05-29T01:20:20;95712.44;;;16.36;30.14
73671;BME280;61968;48.178;11.566;2023-05-29T01:23:07;95716.72;;;16.37;30.21
73671;BME280;61968;48.178;11.566;2023-05-29T01:25:49;95711.38;;;16.32;30.44
73671;BME280;61968;48.178;11.566;2023-05-29T01:28:20;95719.38;;;16.32;30.55
73671;BME280;61968;48.178;11.566;2023-05-29T01:30:48;95714.31;;;16.30;30.58
73671;BME280;61968;48.178;11.566;2023-05-29T01:33:15;95714.31;;;16.25;30.45
73671;BME280;61968;48.178;11.566;2023-05-29T01:35:42;95713.75;;;16.23;30.46
73671;BME280;61968;48.178;11.566;2023-05-29T01:38:09;95713.75;;;16.23;30.40
73671;BME280;61968;48.178;11.566;2023-05-29T01:40:35;95719.66;;;16.15;30.71
73671;BME280;61968;48.178;11.566;2023-05-29T01:43:02;95715.09;;;16.16;30.76
73671;BME280;61968;48.178;11.566;2023-05-29T01:45:30;95722.03;;;16.17;30.85
73671;BME280;61968;48.178;11.566;2023-05-29T01:47:57;95720.69;;;16.14;30.65
73671;BME280;61968;48.178;11.566;2023-05-29T01:50:24;95721.25;;;16.16;30.85
73671;BME280;61968;48.178;11.566;2023-05-29T01:52:52;95718.81;;;16.15;30.74
73671;BME280;61968;48.178;11.566;2023-05-29T01:55:18;95714.56;;;16.14;30.86
73671;BME280;61968;48.178;11.566;2023-05-29T01:57:45;95712.44;;;16.11;31.15
73671;BME280;61968;48.178;11.566;2023-05-29T02:00:12;95714.56;;;16.08;31.17
73671;BME280;61968;48.178;11.566;2023-05-29T02:02:41;95709.75;;;16.05;31.26
73671;BME280;61968;48.178;11.566;2023-05-29T02:05:08;95723.63;;;16.02;31.29
73671;BME280;61968;48.178;11.566;2023-05-29T02:07:35;95718.00;;;15.99;31.52
73671;BME280;61968;48.178;11.566;2023-05-29T02:10:03;95719.63;;;15.95;31.76
73671;BME280;61968;48.178;11.566;2023-05-29T02:12:29;95713.19;;;15.91;31.72
73671;BME280;61968;48.178;11.566;2023-05-29T02:14:56;95709.72;;;15.85;31.85
73671;BME280;61968;48.178;11.566;2023-05-29T02:17:22;95712.13;;;15.81;31.93
73671;BME280;61968;48.178;11.566;2023-05-29T02:19:50;95711.31;;;15.76;32.22
73671;BME280;61968;48.178;11.566;2023-05-29T02:22:17;95714.75;;;15.71;31.83
73671;BME280;61968;48.178;11.566;2023-05-29T02:24:44;95718.47;;;15.65;31.98
73671;BME280;61968;48.178;11.566;2023-05-29T02:27:10;95708.34;;;15.67;32.09
73671;BME280;61968;48.178;11.566;2023-05-29T02:29:37;95711.81;;;15.68;31.92
73671;BME280;61968;48.178;11.566;2023-05-29T02:32:04;95714.72;;;15.66;32.02
73671;BME280;61968;48.178;11.566;2023-05-29T02:34:31;95711.25;;;15.66;32.10
73671;BME280;61968;48.178;11.566;2023-05-29T02:36:58;95717.91;;;15.63;31.93
73671;BME280;61968;48.178;11.566;2023-05-29T02:39:25;95721.66;;;15.62;32.05
73671;BME280;61968;48.178;11.566;2023-05-29T02:41:52;95714.97;;;15.59;32.12
73671;BME280;61968;48.178;11.566;2023-05-29T02:44:19;95715.25;;;15.58;32.28
73671;BME280;61968;48.178;11.566;2023-05-29T02:46:45;95715.75;;;15.50;32.25
73671;BME280;61968;48.178;11.566;2023-05-29T02:49:12;95716.28;;;15.47;32.18
73671;BME280;61968;48.178;11.566;2023-05-29T02:51:38;95717.88;;;15.43;32.34
73671;BME280;61968;48.178;11.566;2023-05-29T02:54:06;95710.13;;;15.41;32.57
73671;BME280;61968;48.178;11.566;2023-05-29T02:56:33;95716.25;;;15.41;32.27
73671;BME280;61968;48.178;11.566;2023-05-29T02:58:59;95715.72;;;15.45;32.38
73671;BME280;61968;48.178;11.566;2023-05-29T03:01:26;95721.56;;;15.41;32.42
73671;BME280;61968;48.178;11.566;2023-05-29T03:03:53;95720.78;;;15.41;32.47
73671;BME280;61968;48.178;11.566;2023-05-29T03:06:21;95723.72;;;15.39;32.35
73671;BME280;61968;48.178;11.566;2023-05-29T03:08:47;95714.09;;;15.38;32.43
73671;BME280;61968;48.178;11.566;2023-05-29T03:11:16;95722.63;;;15.35;32.59
73671;BME280;61968;48.178;11.566;2023-05-29T03:13:42;95722.09;;;15.33;32.53
73671;BME280;61968;48.178;11.566;2023-05-29T03:16:11;95719.41;;;15.28;32.74
73671;BME280;61968;48.178;11.566;2023-05-29T03:18:38;95724.69;;;15.23;32.84
73671;BME280;61968;48.178;11.566;2023-05-29T03:21:05;95716.72;;;15.18;32.84
73671;BME280;61968;48.178;11.566;2023-05-29T03:23:31;95728.66;;;15.15;32.93
73671;BME280;61968;48.178;11.566;2023-05-29T03:25:58;95727.03;;;15.14;32.85
73671;BME280;61968;48.178;11.566;2023-05-29T03:28:26;95720.09;;;15.13;33.07
73671;BME280;61968;48.178;11.566;2023-05-29T03:30:52;95713.19;;;15.12;33.00
73671;BME280;61968;48.178;11.566;2023-05-29T03:33:19;95715.31;;;15.10;33.18
73671;BME280;61968;48.178;11.566;2023-05-29T03:35:45;95723.56;;;15.09;33.17
73671;BME280;61968;48.178;11.566;2023-05-29T03:38:12;95724.34;;;15.09;32.94
73671;BME280;61968;48.178;11.566;2023-05-29T03:40:39;95726.22;;;15.09;33.25
73671;BME280;61968;48.178;11.566;2023-05-29T03:43:05;95729.13;;;15.07;33.12
73671;BME280;61968;48.178;11.566;2023-05-29T03:45:33;95734.16;;;14.99;33.44
73671;BME280;61968;48.178;11.566;2023-05-29T03:48:00;95737.09;;;14.97;33.27
73671;BME280;61968;48.178;11.566;2023-05-29T03:50:26;95742.66;;;14.95;33.25
73671;BME280;61968;48.178;11.566;2023-05-29T03:52:53;95740.25;;;14.94;33.27
73671;BME280;61968;48.178;11.566;2023-05-29T03:55:19;95736.72;;;14.83;33.52
73671;BME280;61968;48.178;11.566;2023-05-29T03:57:46;95742.31;;;14.82;33.29
73671;BME280;61968;48.178;11.566;2023-05-29T04:00:13;95735.66;;;14.84;33.46
73671;BME280;61968;48.178;11.566;2023-05-29T04:02:41;95739.13;;;14.85;33.28
73671;BME280;61968;48.178;11.566;2023-05-29T04:05:08;95742.31;;;14.87;33.38
73671;BME280;61968;48.178;11.566;2023-05-29T04:07:35;95738.13;;;14.91;33.43
73671;BME280;61968;48.178;11.566;2023-05-29T04:10:04;95740.50;;;14.92;33.33
73671;BME280;61968;48.178;11.566;2023-05-29T04:12:31;95741.28;;;14.88;33.35
73671;BME280;61968;48.178;11.566;2023-05-29T04:14:58;95745.25;;;14.85;33.53
73671;BME280;61968;48.178;11.566;2023-05-29T04:17:24;95747.38;;;14.83;33.68
73671;BME280;61968;48.178;11.566;2023-05-29T04:19:52;95751.91;;;14.83;33.70
73671;BME280;61968;48.178;11.566;2023-05-29T04:22:19;95754.28;;;14.84;33.69
73671;BME280;61968;48.178;11.566;2023-05-29T04:24:46;95763.09;;;14.85;33.82
73671;BME280;61968;48.178;11.566;2023-05-29T04:27:12;95763.34;;;14.83;33.83
73671;BME280;61968;48.178;11.566;2023-05-29T04:29:39;95767.59;;;14.84;33.88
73671;BME280;61968;48.178;11.566;2023-05-29T04:32:07;95771.59;;;14.87;33.88
73671;BME280;61968;48.178;11.566;2023-05-29T04:34:35;95772.63;;;14.81;33.76
73671;BME280;61968;48.178;11.566;2023-05-29T04:37:03;95772.41;;;14.82;33.67
73671;BME280;61968;48.178;11.566;2023-05-29T04:39:29;95771.09;;;14.85;33.63
73671;BME280;61968;48.178;11.566;2023-05-29T04:41:56;95773.22;;;14.88;33.68
73671;BME280;61968;48.178;11.566;2023-05-29T04:44:24;95777.72;;;14.87;33.47
73671;BME280;61968;48.178;11.566;2023-05-29T04:46:52;95782.00;;;14.88;33.61
73671;BME280;61968;48.178;11.566;2023-05-29T04:49:19;95780.41;;;14.87;33.59
73671;BME280;61968;48.178;11.566;2023-05-29T04:51:45;95782.00;;;14.88;33.58
73671;BME280;61968;48.178;11.566;2023-05-29T04:54:13;95781.28;;;14.98;33.51
73671;BME280;61968;48.178;11.566;2023-05-29T04:56:40;95786.84;;;14.96;33.50
73671;BME280;61968;48.178;11.566;2023-05-29T04:59:06;95781.84;;;15.05;33.28
73671;BME280;61968;48.178;11.566;2023-05-29T05:01:33;95791.22;;;15.13;33.19
73671;BME280;61968;48.178;11.566;2023-05-29T05:03:59;95786.38;;;15.05;33.45
73671;BME280;61968;48.178;11.566;2023-05-29T05:06:26;95780.47;;;14.98;33.74
73671;BME280;61968;48.178;11.566;2023-05-29T05:08:54;95785.00;;;14.97;33.68
73671;BME280;61968;48.178;11.566;2023-05-29T05:11:23;95786.31;;;14.94;33.77
73671;BME280;61968;48.178;11.566;2023-05-29T05:13:50;95784.22;;;15.02;33.57
73671;BME280;61968;48.178;11.566;2023-05-29T05:16:16;95786.41;;;15.10;33.12
73671;BME280;61968;48.178;11.566;2023-05-29T05:18:43;95788.03;;;15.16;33.14
73671;BME280;61968;48.178;11.566;2023-05-29T05:21:10;95784.03;;;15.13;33.32
73671;BME280;61968;48.178;11.566;2023-05-29T05:23:37;95789.88;;;15.10;33.31
73671;BME280;61968;48.178;11.566;2023-05-29T05:26:03;95791.22;;;15.13;33.38
73671;BME280;61968;48.178;11.566;2023-05-29T05:28:31;95791.28;;;15.18;33.23
73671;BME280;61968;48.178;11.566;2023-05-29T05:30:59;95795.84;;;15.28;33.38
73671;BME280;61968;48.178;11.566;2023-05-29T05:33:26;95797.72;;;15.27;33.41
73671;BME280;61968;48.178;11.566;2023-05-29T05:35:53;95794.53;;;15.30;33.64
73671;BME280;61968;48.178;11.566;2023-05-29T05:38:21;95798.25;;;15.29;33.60
73671;BME280;61968;48.178;11.566;2023-05-29T05:40:47;95797.72;;;15.32;33.68
73671;BME280;61968;48.178;11.566;2023-05-29T05:43:14;95800.69;;;15.36;33.53
73671;BME280;61968;48.178;11.566;2023-05-29T05:45:42;95803.66;;;15.39;33.43
73671;BME280;61968;48.178;11.566;2023-05-29T05:48:08;95807.94;;;15.51;33.04
73671;BME280;61968;48.178;11.566;2023-05-29T05:50:35;95809.56;;;15.57;33.23
73671;BME280;61968;48.178;11.566;2023-05-29T05:53:01;95811.16;;;15.53;33.56
73671;BME280;61968;48.178;11.566;2023-05-29T05:55:28;95811.19;;;15.63;32.94
73671;BME280;61968;48.178;11.566;2023-05-29T05:57:54;95814.16;;;15.67;32.74
73671;BME280;61968;48.178;11.566;2023-05-29T06:00:22;95816.03;;;15.71;32.63
73671;BME280;61968;48.178;11.566;2023-05-29T06:02:50;95812.28;;;15.67;33.34
73671;BME280;61968;48.178;11.566;2023-05-29T06:05:17;95819.25;;;15.73;33.02
73671;BME280;61968;48.178;11.566;2023-05-29T06:07:44;95817.09;;;15.75;32.85
73671;BME280;61968;48.178;11.566;2023-05-29T06:10:10;95819.75;;;15.75;32.74
73671;BME280;61968;48.178;11.566;2023-05-29T06:12:37;95819.25;;;15.73;32.95
73671;BME280;61968;48.178;11.566;2023-05-29T06:15:04;95817.63;;;15.72;33.14
73671;BME280;61968;48.178;11.566;2023-05-29T06:17:32;95822.97;;;15.72;33.21
73671;BME280;61968;48.178;11.566;2023-05-29T06:20:00;95816.34;;;15.85;32.82
73671;BME280;61968;48.178;11.566;2023-05-29T06:22:26;95817.44;;;15.89;32.59
73671;BME280;61968;48.178;11.566;2023-05-29T06:24:53;95823.56;;;15.90;32.56
73671;BME280;61968;48.178;11.566;2023-05-29T06:27:20;95827.84;;;15.91;32.93
73671;BME280;61968;48.178;11.566;2023-05-29T06:29:48;95821.50;;;15.97;32.86
73671;BME280;61968;48.178;11.566;2023-05-29T06:32:15;95823.63;;;16.00;32.78
73671;BME280;61968;48.178;11.566;2023-05-29T06:34:41;95834.28;;;15.95;33.32
73671;BME280;61968;48.178;11.566;2023-05-29T06:37:09;95825.75;;;15.98;32.94
73671;BME280;61968;48.178;11.566;2023-05-29T06:39:36;95821.22;;;15.98;32.98
73671;BME280;61968;48.178;11.566;2023-05-29T06:42:02;95823.13;;;16.13;32.79
73671;BME280;61968;48.178;11.566;2023-05-29T06:44:29;95834.56;;;16.03;33.29
73671;BME280;61968;48.178;11.566;2023-05-29T06:46:55;95834.31;;;16.05;33.10
73671;BME280;61968;48.178;11.566;2023-05-29T06:49:22;95842.84;;;16.07;33.01
73671;BME280;61968;48.178;11.566;2023-05-29T06:51:48;95841.28;;;16.21;32.16
73671;BME280;61968;48.178;11.566;2023-05-29T06:54:16;95838.09;;;16.24;32.41
73671;BME280;61968;48.178;11.566;2023-05-29T06:56:43;95838.34;;;16.23;32.81
73671;BME280;61968;48.178;11.566;2023-05-29T06:59:09;95833.81;;;16.28;32.80
73671;BME280;61968;48.178;11.566;2023-05-29T07:01:36;95849.59;;;16.30;32.92
73671;BME280;61968;48.178;11.566;2023-05-29T07:04:02;95845.06;;;16.46;32.39
73671;BME280;61968;48.178;11.566;2023-05-29T07:06:29;95838.94;;;16.55;32.22
73671;BME280;61968;48.178;11.566;2023-05-29T07:08:56;95846.94;;;16.50;32.63
73671;BME280;61968;48.178;11.566;2023-05-29T07:11:24;95846.66;;;16.47;32.82
73671;BME280;61968;48.178;11.566;2023-05-29T07:13:50;95851.50;;;16.55;32.44
73671;BME280;61968;48.178;11.566;2023-05-29T07:16:17;95852.28;;;16.55;32.67
73671;BME280;61968;48.178;11.566;2023-05-29T07:18:43;95848.84;;;16.70;32.88
73671;BME280;61968;48.178;11.566;2023-05-29T07:21:10;95852.81;;;16.63;33.07
73671;BME280;61968;48.178;11.566;2023-05-29T07:23:37;95860.63;;;16.69;32.93
73671;BME280;61968;48.178;11.566;2023-05-29T07:26:03;95868.88;;;16.73;32.81
73671;BME280;61968;48.178;11.566;2023-05-29T07:28:31;95859.81;;;16.79;33.11
73671;BME280;61968;48.178;11.566;2023-05-29T07:30:57;95865.41;;;16.72;33.36
73671;BME280;61968;48.178;11.566;2023-05-29T07:33:24;95872.59;;;16.72;33.90
73671;BME280;61968;48.178;11.566;2023-05-29T07:35:51;95866.47;;;16.71;33.40
73671;BME280;61968;48.178;11.566;2023-05-29T07:38:17;95873.97;;;16.80;33.55
73671;BME280;61968;48.178;11.566;2023-05-29T07:40:44;95863.00;;;16.91;33.38
73671;BME280;61968;48.178;11.566;2023-05-29T07:43:10;95869.69;;;16.99;33.30
73671;BME280;61968;48.178;11.566;2023-05-29T07:45:38;95862.72;;;17.08;32.96
73671;BME280;61968;48.178;11.566;2023-05-29T07:48:05;95863.00;;;17.02;33.04
73671;BME280;61968;48.178;11.566;2023-05-29T07:50:31;95865.66;;;17.02;33.07
73671;BME280;61968;48.178;11.566;2023-05-29T07:52:59;95862.72;;;17.13;32.74
73671;BME280;61968;48.178;11.566;2023-05-29T07:55:25;95860.31;;;17.17;32.47
73671;BME280;61968;48.178;11.566;2023-05-29T07:57:53;95864.59;;;17.28;32.66
73671;BME280;61968;48.178;11.566;2023-05-29T08:00:20;95866.47;;;17.28;32.46
73671;BME280;61968;48.178;11.566;2023-05-29T08:02:48;95869.63;;;17.30;32.14
73671;BME280;61968;48.178;11.566;2023-05-29T08:05:15;95869.63;;;17.35;32.14
73671;BME280;61968;48.178;11.566;2023-05-29T08:07:41;95868.34;;;17.27;32.59
73671;BME280;61968;48.178;11.566;2023-05-29T08:10:09;95869.63;;;17.30;32.33
73671;BME280;61968;48.178;11.566;2023-05-29T08:12:35;95866.19;;;17.39;32.31
73671;BME280;61968;48.178;11.566;2023-05-29T08:15:02;95868.31;;;17.53;32.21
73671;BME280;61968;48.178;11.566;2023-05-29T08:17:29;95862.66;;;17.70;32.15
73671;BME280;61968;48.178;11.566;2023-05-29T08:19:57;95861.84;;;17.69;32.55
73671;BME280;61968;48.178;11.566;2023-05-29T08:22:28;95866.38;;;17.74;32.64
73671;BME280;61968;48.178;11.566;2023-05-29T08:24:55;95867.41;;;17.78;32.37
73671;BME280;61968;48.178;11.566;2023-05-29T08:27:22;95867.94;;;17.85;31.83
73671;BME280;61968;48.178;11.566;2023-05-29T08:29:49;95869.53;;;17.86;32.02
73671;BME280;61968;48.178;11.566;2023-05-29T08:32:15;95866.31;;;17.89;31.69
73671;BME280;61968;48.178;11.566;2023-05-29T08:34:42;95867.09;;;18.00;31.43
73671;BME280;61968;48.178;11.566;2023-05-29T08:37:12;95868.94;;;17.99;31.72
73671;BME280;61968;48.178;11.566;2023-05-29T08:39:38;95870.00;;;18.08;31.60
73671;BME280;61968;48.178;11.566;2023-05-29T08:42:09;95869.19;;;18.13;31.61
73671;BME280;61968;48.178;11.566;2023-05-29T08:44:40;95860.91;;;18.15;32.06
73671;BME280;61968;48.178;11.566;2023-05-29T08:47:07;95870.50;;;18.21;31.82
73671;BME280;61968;48.178;11.566;2023-05-29T08:49:40;95864.03;;;18.27;32.04
73671;BME280;61968;48.178;11.566;2023-05-29T08:52:09;95862.41;;;18.31;31.84
73671;BME280;61968;48.178;11.566;2023-05-29T08:54:40;95862.84;;;18.43;32.09
73671;BME280;61968;48.178;11.566;2023-05-29T08:57:06;95869.31;;;18.42;32.04
73671;BME280;61968;48.178;11.566;2023-05-29T08:59:33;95871.44;;;18.40;31.60
73671;BME280;61968;48.178;11.566;2023-05-29T09:02:03;95868.78;;;18.40;32.06
73671;BME280;61968;48.178;11.566;2023-05-29T09:04:31;95870.09;;;18.43;32.27
73671;BME280;61968;48.178;11.566;2023-05-29T09:06:57;95868.19;;;18.48;32.20
73671;BME280;61968;48.178;11.566;2023-05-29T09:09:24;95873.22;;;18.60;32.63
73671;BME280;61968;48.178;11.566;2023-05-29T09:11:53;95876.91;;;18.69;32.40
73671;BME280;61968;48.178;11.566;2023-05-29T09:14:34;95870.91;;;18.77;31.94
73671;BME280;61968;48.178;11.566;2023-05-29T09:17:02;95876.59;;;18.71;31.62
73671;BME280;61968;48.178;11.566;2023-05-29T09:19:29;95873.13;;;18.70;31.76
73671;BME280;61968;48.178;11.566;2023-05-29T09:22:00;95868.81;;;18.74;32.18
73671;BME280;61968;48.178;11.566;2023-05-29T09:24:27;95867.69;;;18.80;30.69
73671;BME280;61968;48.178;11.566;2023-05-29T09:26:55;95873.25;;;18.94;30.61
73671;BME280;61968;48.178;11.566;2023-05-29T09:29:22;95863.06;;;18.96;30.74
73671;BME280;61968;48.178;11.566;2023-05-29T09:31:50;95862.44;;;19.04;30.59
73671;BME280;61968;48.178;11.566;2023-05-29T09:34:17;95864.34;;;18.99;29.25
73671;BME280;61968;48.178;11.566;2023-05-29T09:36:44;95872.59;;;19.08;29.70
73671;BME280;61968;48.178;11.566;2023-05-29T09:39:10;95867.09;;;18.94;29.53
73671;BME280;61968;48.178;11.566;2023-05-29T09:41:41;95869.69;;;19.04;28.96
73671;BME280;61968;48.178;11.566;2023-05-29T09:44:12;95872.03;;;19.11;29.03
73671;BME280;61968;48.178;11.566;2023-05-29T09:46:40;95866.66;;;19.11;28.49
73671;BME280;61968;48.178;11.566;2023-05-29T09:49:10;95868.75;;;19.19;29.24
73671;BME280;61968;48.178;11.566;2023-05-29T09:51:37;95872.59;;;19.08;28.40
73671;BME280;61968;48.178;11.566;2023-05-29T09:54:15;95871.56;;;19.03;27.50
73671;BME280;61968;48.178;11.566;2023-05-29T09:56:42;95876.78;;;19.19;28.60
73671;BME280;61968;48.178;11.566;2023-05-29T09:59:12;95877.31;;;19.21;26.94
73671;BME280;61968;48.178;11.566;2023-05-29T10:01:40;95880.13;;;19.35;25.80
73671;BME280;61968;48.178;11.566;2023-05-29T10:04:08;95872.03;;;19.11;25.95
73671;BME280;61968;48.178;11.566;2023-05-29T10:06:36;95872.25;;;19.14;25.56
73671;BME280;61968;48.178;11.566;2023-05-29T10:09:05;95873.31;;;19.18;25.56
73671;BME280;61968;48.178;11.566;2023-05-29T10:11:35;95872.13;;;19.00;26.46
73671;BME280;61968;48.178;11.566;2023-05-29T10:14:05;95875.44;;;19.21;26.17
73671;BME280;61968;48.178;11.566;2023-05-29T10:16:37;95876.63;;;19.34;26.60
73671;BME280;61968;48.178;11.566;2023-05-29T10:19:12;95869.47;;;19.30;27.03
73671;BME280;61968;48.178;11.566;2023-05-29T10:21:40;95870.16;;;19.40;26.96
73671;BME280;61968;48.178;11.566;2023-05-29T10:24:07;95863.53;;;19.33;27.03
73671;BME280;61968;48.178;11.566;2023-05-29T10:26:37;95862.25;;;19.25;26.29
73671;BME280;61968;48.178;11.566;2023-05-29T10:29:09;95866.38;;;19.41;25.96
73671;BME280;61968;48.178;11.566;2023-05-29T10:31:48;95864.25;;;19.38;25.20
73671;BME280;61968;48.178;11.566;2023-05-29T10:34:25;95863.06;;;19.55;26.42
73671;BME280;61968;48.178;11.566;2023-05-29T10:37:02;95864.03;;;19.64;25.90
73671;BME280;61968;48.178;11.566;2023-05-29T10:39:31;95867.75;;;19.68;26.03
73671;BME280;61968;48.178;11.566;2023-05-29T10:41:58;95861.19;;;19.79;27.62
73671;BME280;61968;48.178;11.566;2023-05-29T10:44:38;95853.72;;;19.76;27.90
73671;BME280;61968;48.178;11.566;2023-05-29T10:47:10;95856.84;;;19.83;27.14
73671;BME280;61968;48.178;11.566;2023-05-29T10:49:37;95848.16;;;19.91;26.90
73671;BME280;61968;48.178;11.566;2023-05-29T10:52:05;95852.44;;;19.92;27.45
73671;BME280;61968;48.178;11.566;2023-05-29T10:54:41;95860.03;;;19.85;26.02
73671;BME280;61968;48.178;11.566;2023-05-29T10:57:15;95864.25;;;19.91;26.51
73671;BME280;61968;48.178;11.566;2023-05-29T10:59:44;95862.38;;;19.92;25.72
73671;BME280;61968;48.178;11.566;2023-05-29T11:02:17;95857.09;;;20.06;25.65
73671;BME280;61968;48.178;11.566;2023-05-29T11:04:44;95861.91;;;20.09;23.60
73671;BME280;61968;48.178;11.566;2023-05-29T11:07:33;95856.44;;;20.14;25.22
73671;BME280;61968;48.178;11.566;2023-05-29T11:10:11;95854.06;;;20.12;25.74
73671;BME280;61968;48.178;11.566;2023-05-29T11:12:55;95851.56;;;20.21;25.09
73671;BME280;61968;48.178;11.566;2023-05-29T11:15:23;95853.63;;;20.05;23.89
73671;BME280;61968;48.178;11.566;2023-05-29T11:17:51;95855.25;;;20.25;24.92
73671;BME280;61968;48.178;11.566;2023-05-29T11:20:28;95855.47;;;20.29;25.40
73671;BME280;61968;48.178;11.566;2023-05-29T11:23:02;95851.63;;;20.35;25.73
73671;BME280;61968;48.178;11.566;2023-05-29T11:25:34;95852.81;;;20.48;25.59
73671;BME280;61968;48.178;11.566;2023-05-29T11:28:00;95855.56;;;20.61;25.86
73671;BME280;61968;48.178;11.566;2023-05-29T11:30:29;95852.78;;;20.67;23.67
73671;BME280;61968;48.178;11.566;2023-05-29T11:32:59;95862.59;;;20.76;24.40
73671;BME280;61968;48.178;11.566;2023-05-29T11:35:29;95846.91;;;20.83;24.20
73671;BME280;61968;48.178;11.566;2023-05-29T11:37:56;95858.88;;;20.91;25.19
73671;BME280;61968;48.178;11.566;2023-05-29T11:40:23;95857.72;;;20.97;23.81
73671;BME280;61968;48.178;11.566;2023-05-29T11:42:51;95860.69;;;20.96;23.71
73671;BME280;61968;48.178;11.566;2023-05-29T11:45:19;95862.19;;;21.02;24.27
73671;BME280;61968;48.178;11.566;2023-05-29T11:47:53;95869.19;;;21.03;24.90
73671;BME280;61968;48.178;11.566;2023-05-29T11:50:22;95852.28;;;21.16;25.05
73671;BME280;61968;48.178;11.566;2023-05-29T11:52:49;95845.91;;;21.12;23.57
73671;BME280;61968;48.178;11.566;2023-05-29T11:55:17;95847.50;;;21.13;23.21
73671;BME280;61968;48.178;11.566;2023-05-29T11:57:44;95852.59;;;21.15;23.98
73671;BME280;61968;48.178;11.566;2023-05-29T12:00:13;95842.16;;;21.27;24.94
73671;BME280;61968;48.178;11.566;2023-05-29T12:02:40;95843.25;;;21.40;24.36
73671;BME280;61968;48.178;11.566;2023-05-29T12:05:09;95845.78;;;21.50;23.71
73671;BME280;61968;48.178;11.566;2023-05-29T12:07:46;95841.53;;;21.63;24.05
73671;BME280;61968;48.178;11.566;2023-05-29T12:10:15;95846.00;;;21.67;23.17
73671;BME280;61968;48.178;11.566;2023-05-29T12:12:42;95844.28;;;21.71;23.96
73671;BME280;61968;48.178;11.566;2023-05-29T12:15:09;95846.38;;;21.74;24.17
73671;BME280;61968;48.178;11.566;2023-05-29T12:17:40;95839.25;;;21.84;23.74
73671;BME280;61968;48.178;11.566;2023-05-29T12:20:10;95841.19;;;21.92;23.96
73671;BME280;61968;48.178;11.566;2023-05-29T12:22:38;95843.91;;;21.92;24.23
73671;BME280;61968;48.178;11.566;2023-05-29T12:25:10;95832.66;;;21.90;24.27
73671;BME280;61968;48.178;11.566;2023-05-29T12:27:38;95838.09;;;21.98;24.23
73671;BME280;61968;48.178;11.566;2023-05-29T12:30:09;95846.28;;;22.07;24.13
73671;BME280;61968;48.178;11.566;2023-05-29T12:32:36;95840.91;;;22.07;23.97
73671;BME280;61968;48.178;11.566;2023-05-29T12:35:11;95831.13;;;21.97;23.43
73671;BME280;61968;48.178;11.566;2023-05-29T12:37:42;95827.63;;;22.11;23.59
73671;BME280;61968;48.178;11.566;2023-05-29T12:40:13;95836.53;;;22.11;22.84
73671;BME280;61968;48.178;11.566;2023-05-29T12:42:40;95840.22;;;22.15;23.81
73671;BME280;61968;48.178;11.566;2023-05-29T12:45:07;95843.09;;;22.19;24.01
73671;BME280;61968;48.178;11.566;2023-05-29T12:47:35;95842.38;;;22.27;23.64
73671;BME280;61968;48.178;11.566;2023-05-29T12:50:09;95843.53;;;22.35;23.53
73671;BME280;61968;48.178;11.566;2023-05-29T12:52:41;95846.25;;;22.35;23.55
73671;BME280;61968;48.178;11.566;2023-05-29T12:55:08;95845.03;;;22.41;22.12